createdAt,value
2022-10-04T00:00:47.542Z,12.52
2022-10-04T00:01:49.705Z,9.50
2022-10-04T00:03:13.355Z,10.02
2022-10-04T00:04:24.585Z,9.57
2022-10-04T00:05:29.194Z,14.95
2022-10-04T00:06:31.627Z,11.88
2022-10-04T00:07:55.675Z,11.68
2022-10-04T00:09:23.393Z,8.95
2022-10-04T00:10:34.151Z,11.77
2022-10-04T00:11:38.325Z,11.60
2022-10-04T00:12:52.186Z,8.95
2022-10-04T00:13:58.680Z,8.75
2022-10-04T00:15:05.661Z,8.25
2022-10-04T00:16:21.003Z,8.48
2022-10-04T00:17:27.167Z,11.32
2022-10-04T00:18:40.399Z,11.20
2022-10-04T00:19:46.961Z,11.38
2022-10-04T00:20:53.190Z,13.07
2022-10-04T00:21:56.238Z,8.55
2022-10-04T00:23:23.263Z,10.48
2022-10-04T00:24:32.498Z,8.98
2022-10-04T00:25:36.416Z,7.53
2022-10-04T00:26:38.505Z,9.90
2022-10-04T00:28:16.426Z,8.15
2022-10-04T00:29:39.603Z,12.88
2022-10-04T00:30:41.939Z,8.13
2022-10-04T00:32:11.798Z,10.85
2022-10-04T00:33:38.588Z,8.50
2022-10-04T00:34:50.054Z,8.02
2022-10-04T00:35:52.328Z,8.80
2022-10-04T00:36:55.814Z,6.75
2022-10-04T00:38:00.829Z,10.48
2022-10-04T00:39:08.867Z,10.05
2022-10-04T00:40:17.917Z,9.82
2022-10-04T00:41:21.029Z,14.63
2022-10-04T00:42:32.886Z,9.25
2022-10-04T00:43:43.886Z,11.77
2022-10-04T00:44:53.911Z,8.90
2022-10-04T00:46:02.450Z,9.45
2022-10-04T00:47:19.744Z,6.97
2022-10-04T00:48:31.932Z,8.90
2022-10-04T00:49:40.231Z,9.82
2022-10-04T00:51:04.483Z,12.90
2022-10-04T00:52:16.838Z,9.13
2022-10-04T00:54:30.835Z,12.23
2022-10-04T00:55:36.451Z,8.18
2022-10-04T00:56:46.324Z,12.45
2022-10-04T00:57:50.599Z,9.27
2022-10-04T00:58:57.257Z,13.10
2022-10-04T01:00:05.306Z,13.32
2022-10-04T01:01:09.197Z,12.30
2022-10-04T01:02:21.590Z,8.25
2022-10-04T01:04:49.790Z,9.73
2022-10-04T01:05:57.313Z,11.40
2022-10-04T01:07:02.849Z,9.45
2022-10-04T01:08:18.517Z,11.35
2022-10-04T01:09:22.506Z,11.98
2022-10-04T01:10:30.722Z,12.05
2022-10-04T01:11:41.783Z,8.80
2022-10-04T01:13:02.886Z,9.10
2022-10-04T01:14:31.550Z,11.20
2022-10-04T01:15:43.030Z,9.88
2022-10-04T01:16:46.114Z,11.38
2022-10-04T01:18:09.185Z,11.43
2022-10-04T01:19:26.612Z,10.93
2022-10-04T01:20:33.526Z,8.77
2022-10-04T01:21:38.513Z,11.32
2022-10-04T01:22:43.961Z,13.48
2022-10-04T01:23:54.541Z,10.35
2022-10-04T01:24:57.385Z,10.88
2022-10-04T01:25:59.523Z,11.55
2022-10-04T01:27:02.027Z,8.85
2022-10-04T01:28:04.576Z,8.95
2022-10-04T01:29:26.744Z,15.65
2022-10-04T01:30:28.984Z,8.95
2022-10-04T01:31:34.126Z,12.50
2022-10-04T01:32:38.494Z,8.52
2022-10-04T01:33:41.050Z,9.27
2022-10-04T01:34:44.598Z,11.77
2022-10-04T01:35:48.110Z,9.13
2022-10-04T01:36:54.157Z,11.43
2022-10-04T01:37:56.352Z,12.30
2022-10-04T01:38:58.588Z,11.38
2022-10-04T01:40:01.089Z,15.30
2022-10-04T01:41:05.904Z,14.35
2022-10-04T01:42:27.349Z,11.05
2022-10-04T01:43:35.405Z,12.18
2022-10-04T01:44:45.193Z,15.73
2022-10-04T01:45:53.170Z,13.43
2022-10-04T01:46:59.348Z,11.00
2022-10-04T01:48:06.460Z,14.13
2022-10-04T01:49:16.309Z,14.15
2022-10-04T01:50:31.353Z,14.20
2022-10-04T01:51:38.309Z,14.93
2022-10-04T01:52:49.387Z,10.93
2022-10-04T01:54:01.758Z,11.40
2022-10-04T01:55:16.900Z,12.57
2022-10-04T01:56:24.342Z,17.75
2022-10-04T01:57:39.072Z,12.45
2022-10-04T01:58:50.794Z,10.90
2022-10-04T02:00:01.387Z,12.75
2022-10-04T02:01:14.763Z,11.25
2022-10-04T02:02:35.556Z,14.95
2022-10-04T02:03:43.893Z,12.35
2022-10-04T02:04:53.442Z,12.60
2022-10-04T02:06:01.107Z,13.57
2022-10-04T02:07:04.493Z,11.55
2022-10-04T02:08:11.900Z,11.35
2022-10-04T02:09:18.593Z,12.63
2022-10-04T02:10:23.306Z,13.50
2022-10-04T02:11:30.108Z,12.95
2022-10-04T02:12:34.776Z,15.30
2022-10-04T02:13:40.020Z,14.02
2022-10-04T02:14:52.507Z,13.15
2022-10-04T02:16:59.820Z,17.27
2022-10-04T02:18:05.573Z,12.20
2022-10-04T02:19:09.390Z,19.48
2022-10-04T02:20:23.891Z,14.52
2022-10-04T02:21:26.373Z,16.25
2022-10-04T02:22:29.005Z,18.60
2022-10-04T02:23:32.555Z,12.95
2022-10-04T02:24:39.925Z,15.20
2022-10-04T02:25:42.183Z,13.13
2022-10-04T02:26:50.487Z,14.50
2022-10-04T02:27:56.334Z,15.20
2022-10-04T02:28:58.770Z,13.68
2022-10-04T02:30:10.767Z,15.52
2022-10-04T02:31:31.728Z,13.50
2022-10-04T02:32:53.278Z,14.55
2022-10-04T02:33:58.195Z,18.05
2022-10-04T02:35:00.461Z,15.98
2022-10-04T02:36:02.824Z,14.73
2022-10-04T02:37:05.698Z,12.63
2022-10-04T02:38:30.157Z,19.25
2022-10-04T02:39:45.441Z,13.40
2022-10-04T02:40:59.225Z,12.52
2022-10-04T02:42:10.253Z,13.90
2022-10-04T02:43:20.048Z,16.52
2022-10-04T02:44:33.571Z,18.52
2022-10-04T02:45:47.803Z,21.58
2022-10-04T02:47:18.373Z,19.58
2022-10-04T02:48:56.613Z,17.17
2022-10-04T02:50:06.149Z,26.17
2022-10-04T02:51:23.461Z,22.33
2022-10-04T02:52:34.238Z,19.02
2022-10-04T02:53:39.194Z,23.23
2022-10-04T02:55:02.467Z,28.63
2022-10-04T02:56:05.254Z,16.70
2022-10-04T02:57:16.266Z,17.70
2022-10-04T02:58:23.340Z,19.55
2022-10-04T02:59:26.058Z,17.58
2022-10-04T03:00:31.356Z,23.02
2022-10-04T03:01:43.766Z,18.30
2022-10-04T03:03:08.007Z,16.08
2022-10-04T03:04:15.021Z,16.05
2022-10-04T03:05:17.345Z,16.52
2022-10-04T03:06:22.295Z,13.55
2022-10-04T03:07:25.438Z,15.43
2022-10-04T03:08:30.694Z,13.25
2022-10-04T03:09:36.328Z,18.33
2022-10-04T03:10:39.077Z,13.68
2022-10-04T03:11:42.482Z,15.63
2022-10-04T03:12:50.778Z,13.57
2022-10-04T03:13:56.316Z,15.98
2022-10-04T03:14:58.607Z,20.90
2022-10-04T03:16:01.227Z,13.15
2022-10-04T03:17:05.232Z,17.13
2022-10-04T03:18:07.564Z,20.48
2022-10-04T03:19:12.224Z,16.60
2022-10-04T03:20:16.224Z,17.98
2022-10-04T03:21:20.083Z,15.27
2022-10-04T03:22:23.249Z,16.58
2022-10-04T03:23:25.497Z,12.45
2022-10-04T03:24:39.527Z,11.52
2022-10-04T03:25:50.263Z,17.90
2022-10-04T03:26:55.789Z,17.73
2022-10-04T03:28:02.777Z,19.65
2022-10-04T03:29:10.657Z,20.75
2022-10-04T03:30:14.632Z,18.17
2022-10-04T03:31:19.795Z,15.07
2022-10-04T03:32:22.614Z,13.52
2022-10-04T03:33:26.958Z,15.70
2022-10-04T03:34:38.008Z,14.20
2022-10-04T03:35:40.589Z,16.65
2022-10-04T03:36:44.681Z,16.35
2022-10-04T03:37:46.956Z,16.45
2022-10-04T03:38:52.256Z,16.23
2022-10-04T03:39:56.811Z,16.98
2022-10-04T03:41:01.088Z,15.85
2022-10-04T03:42:07.854Z,19.13
2022-10-04T03:43:12.506Z,16.42
2022-10-04T03:44:18.611Z,20.48
2022-10-04T03:45:23.546Z,23.30
2022-10-04T03:46:28.225Z,18.35
2022-10-04T03:47:41.292Z,17.25
2022-10-04T03:48:46.778Z,18.23
2022-10-04T03:49:51.161Z,18.77
2022-10-04T03:50:53.950Z,19.08
2022-10-04T03:51:58.802Z,20.08
2022-10-04T03:53:27.094Z,16.42
2022-10-04T03:54:30.620Z,17.08
2022-10-04T03:55:44.407Z,17.95
2022-10-04T03:56:47.574Z,22.77
2022-10-04T03:57:51.951Z,20.00
2022-10-04T03:58:55.223Z,16.90
2022-10-04T03:59:59.005Z,19.42
2022-10-04T04:01:19.475Z,18.83
2022-10-04T04:02:45.640Z,19.50
2022-10-04T04:03:59.917Z,15.63
2022-10-04T04:05:26.448Z,17.77
2022-10-04T04:06:51.522Z,14.35
2022-10-04T04:08:12.636Z,18.40
2022-10-04T04:09:23.952Z,15.05
2022-10-04T04:10:37.038Z,15.88
2022-10-04T04:11:39.465Z,16.00
2022-10-04T04:12:52.308Z,12.38
2022-10-04T04:14:07.399Z,12.00
2022-10-04T04:15:14.500Z,17.52
2022-10-04T04:16:26.039Z,13.80
2022-10-04T04:17:38.889Z,19.13
2022-10-04T04:18:43.959Z,19.70
2022-10-04T04:19:46.503Z,14.32
2022-10-04T04:20:51.639Z,19.45
2022-10-04T04:21:55.946Z,19.73
2022-10-04T04:23:12.739Z,12.50
2022-10-04T04:24:26.649Z,28.63
2022-10-04T04:25:32.874Z,16.35
2022-10-04T04:26:47.418Z,11.75
2022-10-04T04:27:52.263Z,13.75
2022-10-04T04:29:03.271Z,14.65
2022-10-04T04:30:08.365Z,17.60
2022-10-04T04:31:20.785Z,13.38
2022-10-04T04:33:42.791Z,18.02
2022-10-04T04:34:54.178Z,13.93
2022-10-04T04:36:04.801Z,15.23
2022-10-04T04:37:10.808Z,13.93
2022-10-04T04:38:25.290Z,16.45
2022-10-04T04:39:37.086Z,18.73
2022-10-04T04:40:39.350Z,15.00
2022-10-04T04:41:43.090Z,13.15
2022-10-04T04:42:49.019Z,14.68
2022-10-04T04:43:51.237Z,12.25
2022-10-04T04:44:57.844Z,14.73
2022-10-04T04:46:22.669Z,16.05
2022-10-04T04:47:42.368Z,14.77
2022-10-04T04:48:47.092Z,20.75
2022-10-04T04:49:49.876Z,12.15
2022-10-04T04:50:55.832Z,19.63
2022-10-04T04:51:58.046Z,15.95
2022-10-04T04:53:10.285Z,15.18
2022-10-04T04:54:12.692Z,15.27
2022-10-04T04:55:50.074Z,14.70
2022-10-04T04:56:57.323Z,13.25
2022-10-04T04:57:59.886Z,14.40
2022-10-04T04:59:04.371Z,14.10
2022-10-04T05:00:07.396Z,17.60
2022-10-04T05:01:23.502Z,17.38
2022-10-04T05:02:29.563Z,11.73
2022-10-04T05:03:33.908Z,10.40
2022-10-04T05:04:36.249Z,12.13
2022-10-04T05:05:38.410Z,11.75
2022-10-04T05:06:49.125Z,17.27
2022-10-04T05:08:20.473Z,18.88
2022-10-04T05:09:23.587Z,20.70
2022-10-04T05:10:33.691Z,21.52
2022-10-04T05:11:39.227Z,14.98
2022-10-04T05:12:41.963Z,21.85
2022-10-04T05:13:57.076Z,18.08
2022-10-04T05:14:59.637Z,15.38
2022-10-04T05:16:02.195Z,16.15
2022-10-04T05:17:05.632Z,16.45
2022-10-04T05:18:31.778Z,15.63
2022-10-04T05:19:37.694Z,16.00
2022-10-04T05:20:50.331Z,12.40
2022-10-04T05:21:55.735Z,13.00
2022-10-04T05:22:59.010Z,17.70
2022-10-04T05:24:18.393Z,12.40
2022-10-04T05:25:33.761Z,14.27
2022-10-04T05:26:36.210Z,14.73
2022-10-04T05:27:42.358Z,13.43
2022-10-04T05:28:44.800Z,19.73
2022-10-04T05:29:55.817Z,12.90
2022-10-04T05:31:11.455Z,13.50
2022-10-04T05:32:37.752Z,17.30
2022-10-04T05:33:54.119Z,15.85
2022-10-04T05:34:57.600Z,18.05
2022-10-04T05:36:13.717Z,14.52
2022-10-04T05:37:44.126Z,17.58
2022-10-04T05:38:57.776Z,18.90
2022-10-04T05:40:35.669Z,15.20
2022-10-04T05:41:48.915Z,12.73
2022-10-04T05:42:52.297Z,13.43
2022-10-04T05:43:54.916Z,20.35
2022-10-04T05:44:58.638Z,18.65
2022-10-04T05:46:43.368Z,14.63
2022-10-04T05:47:50.486Z,17.75
2022-10-04T05:48:55.775Z,15.18
2022-10-04T05:50:01.033Z,14.63
2022-10-04T05:51:14.807Z,28.92
2022-10-04T05:52:27.872Z,26.92
2022-10-04T05:53:31.266Z,19.88
2022-10-04T05:54:35.689Z,14.75
2022-10-04T05:55:47.157Z,12.52
2022-10-04T05:57:24.922Z,18.55
2022-10-04T05:58:39.844Z,16.60
2022-10-04T06:00:01.894Z,14.25
2022-10-04T06:01:23.194Z,15.38
2022-10-04T06:02:51.750Z,14.63
2022-10-04T06:04:12.360Z,13.48
2022-10-04T06:05:25.600Z,19.63
2022-10-04T06:06:57.119Z,21.52
2022-10-04T06:08:33.273Z,16.05
2022-10-04T06:10:00.577Z,17.52
2022-10-04T06:11:09.887Z,18.17
2022-10-04T06:12:47.797Z,16.15
2022-10-04T06:14:09.069Z,14.55
2022-10-04T06:15:42.073Z,19.75
2022-10-04T06:16:58.662Z,19.40
2022-10-04T06:18:20.576Z,18.77
2022-10-04T06:19:46.773Z,24.67
2022-10-04T06:21:19.354Z,19.17
2022-10-04T06:22:23.441Z,17.00
2022-10-04T06:23:27.783Z,15.85
2022-10-04T06:24:34.634Z,16.85
2022-10-04T06:25:42.234Z,15.13
2022-10-04T06:26:53.914Z,16.73
2022-10-04T06:28:17.364Z,19.00
2022-10-04T06:29:33.000Z,14.45
2022-10-04T06:31:01.599Z,17.63
2022-10-04T06:32:23.419Z,17.08
2022-10-04T06:33:49.215Z,19.63
2022-10-04T06:35:30.506Z,16.75
2022-10-04T06:37:10.117Z,17.63
2022-10-04T06:38:38.537Z,14.40
2022-10-04T06:40:06.047Z,15.07
2022-10-04T06:41:18.185Z,17.75
2022-10-04T06:42:42.212Z,19.23
2022-10-04T06:44:17.669Z,22.10
2022-10-04T06:45:41.595Z,20.75
2022-10-04T06:46:52.511Z,18.77
2022-10-04T06:48:13.237Z,26.80
2022-10-04T06:49:29.659Z,25.40
2022-10-04T06:50:52.681Z,29.42
2022-10-04T06:52:21.813Z,33.63
2022-10-04T06:53:48.324Z,24.75
2022-10-04T06:55:02.377Z,28.60
2022-10-04T06:56:31.289Z,27.52
2022-10-04T06:57:41.671Z,26.55
2022-10-04T06:59:02.887Z,24.58
2022-10-04T07:00:18.747Z,25.05
2022-10-04T07:01:35.211Z,19.92
2022-10-04T07:02:50.155Z,22.42
2022-10-04T07:03:54.953Z,26.45
2022-10-04T07:05:18.431Z,20.55
2022-10-04T07:06:27.792Z,16.98
2022-10-04T07:07:37.188Z,21.60
2022-10-04T07:08:41.372Z,20.98
2022-10-04T07:09:45.623Z,21.40
2022-10-04T07:10:55.402Z,20.65
2022-10-04T07:13:10.107Z,22.27
2022-10-04T07:14:18.631Z,19.83
2022-10-04T07:15:28.776Z,16.33
2022-10-04T07:16:39.657Z,18.25
2022-10-04T07:17:45.619Z,17.77
2022-10-04T07:19:13.049Z,16.65
2022-10-04T07:20:32.159Z,18.88
2022-10-04T07:21:45.370Z,19.95
2022-10-04T07:22:58.340Z,21.35
2022-10-04T07:24:03.622Z,19.15
2022-10-04T07:25:25.598Z,16.30
2022-10-04T07:26:36.310Z,13.40
2022-10-04T07:28:16.724Z,20.50
2022-10-04T07:29:33.687Z,17.38
2022-10-04T07:30:39.969Z,17.52
2022-10-04T07:31:44.088Z,22.23
2022-10-04T07:32:51.700Z,17.05
2022-10-04T07:34:03.772Z,21.45
2022-10-04T07:35:35.366Z,15.70
2022-10-04T07:36:45.284Z,18.48
2022-10-04T07:37:58.067Z,19.67
2022-10-04T07:39:13.683Z,23.30
2022-10-04T07:40:29.271Z,22.80
2022-10-04T07:41:46.136Z,20.27
2022-10-04T07:42:54.735Z,21.40
2022-10-04T07:44:04.250Z,19.42
2022-10-04T07:45:25.826Z,20.98
2022-10-04T07:46:51.068Z,15.43
2022-10-04T07:48:09.892Z,19.15
2022-10-04T07:49:14.889Z,18.23
2022-10-04T07:50:32.093Z,13.60
2022-10-04T07:51:59.284Z,14.13
2022-10-04T07:53:22.030Z,18.15
2022-10-04T07:54:44.664Z,18.38
2022-10-04T07:56:02.624Z,23.85
2022-10-04T07:57:37.867Z,16.10
2022-10-04T07:58:45.798Z,20.27
2022-10-04T08:00:13.061Z,21.45
2022-10-04T08:01:42.795Z,26.08
2022-10-04T08:02:51.243Z,22.92
2022-10-04T08:04:05.435Z,15.52
2022-10-04T08:05:36.343Z,15.32
2022-10-04T08:06:58.723Z,19.83
2022-10-04T08:08:13.069Z,14.05
2022-10-04T08:09:52.038Z,17.02
2022-10-04T08:10:59.852Z,14.80
2022-10-04T08:12:25.287Z,21.75
2022-10-04T08:14:03.224Z,23.35
2022-10-04T08:15:27.719Z,15.88
2022-10-04T08:16:45.834Z,17.27
2022-10-04T08:17:56.995Z,16.95
2022-10-04T08:19:13.225Z,20.67
2022-10-04T08:20:36.359Z,19.67
2022-10-04T08:22:03.830Z,14.30
2022-10-04T08:23:15.077Z,16.95
2022-10-04T08:24:40.144Z,15.05
2022-10-04T08:26:12.804Z,14.52
2022-10-04T08:28:05.154Z,16.95
2022-10-04T08:29:41.137Z,15.35
2022-10-04T08:31:12.550Z,17.63
2022-10-04T08:32:23.106Z,17.88
2022-10-04T08:34:06.593Z,13.75
2022-10-04T08:35:09.583Z,11.18
2022-10-04T08:36:43.775Z,12.48
2022-10-04T08:38:11.244Z,12.00
2022-10-04T08:39:55.876Z,13.00
2022-10-04T08:41:21.002Z,14.35
2022-10-04T08:43:04.459Z,10.95
2022-10-04T08:44:27.654Z,12.88
2022-10-04T08:46:10.960Z,11.52
2022-10-04T08:47:22.101Z,13.60
2022-10-04T08:48:45.238Z,11.15
2022-10-04T08:51:43.814Z,17.58
2022-10-04T08:52:48.718Z,12.30
2022-10-04T08:54:05.949Z,15.55
2022-10-04T08:55:29.199Z,12.48
2022-10-04T08:56:43.979Z,9.05
2022-10-04T08:58:10.557Z,11.15
2022-10-04T08:59:40.488Z,11.77
2022-10-04T09:01:15.687Z,13.27
2022-10-04T09:02:42.532Z,11.60
2022-10-04T09:04:14.858Z,10.75
2022-10-04T09:05:38.724Z,9.15
2022-10-04T09:06:45.032Z,9.88
2022-10-04T09:07:58.022Z,11.13
2022-10-04T09:09:02.921Z,11.15
2022-10-04T09:10:34.062Z,13.07
2022-10-04T09:12:09.141Z,13.30
2022-10-04T09:13:53.680Z,11.07
2022-10-04T09:15:16.607Z,10.63
2022-10-04T09:17:39.054Z,11.68
2022-10-04T09:19:07.433Z,8.20
2022-10-04T09:20:37.647Z,8.18
2022-10-04T09:21:46.422Z,10.77
2022-10-04T09:23:06.700Z,10.15
2022-10-04T09:24:17.603Z,10.02
2022-10-04T09:25:27.624Z,13.98
2022-10-04T09:26:51.726Z,8.93
2022-10-04T09:28:17.399Z,8.30
2022-10-04T09:29:50.259Z,11.10
2022-10-04T09:31:11.369Z,8.15
2022-10-04T09:32:46.164Z,13.73
2022-10-04T09:34:23.940Z,12.80
2022-10-04T09:36:04.679Z,10.90
2022-10-04T09:37:41.884Z,7.85
2022-10-04T09:39:30.981Z,11.48
2022-10-04T09:40:54.693Z,8.20
2022-10-04T09:42:16.673Z,7.97
2022-10-04T09:43:27.572Z,9.20
2022-10-04T09:44:35.543Z,8.90
2022-10-04T09:45:59.676Z,9.07
2022-10-04T09:47:12.925Z,11.07
2022-10-04T09:48:56.363Z,9.27
2022-10-04T09:50:26.625Z,7.82
2022-10-04T09:51:41.971Z,11.02
2022-10-04T09:53:21.286Z,11.00
2022-10-04T09:55:05.262Z,10.68
2022-10-04T09:58:12.418Z,13.43
2022-10-04T09:59:34.182Z,13.30
2022-10-04T10:00:50.496Z,9.48
2022-10-04T10:02:04.434Z,10.15
2022-10-04T10:03:12.142Z,10.27
2022-10-04T10:04:38.114Z,9.95
2022-10-04T10:06:05.099Z,11.60
2022-10-04T10:07:44.827Z,12.60
2022-10-04T10:09:18.485Z,8.00
2022-10-04T10:10:59.688Z,8.43
2022-10-04T10:12:42.846Z,11.13
2022-10-04T10:14:13.208Z,12.48
2022-10-04T10:15:32.899Z,13.23
2022-10-04T10:16:42.014Z,11.55
2022-10-04T10:18:07.780Z,10.23
2022-10-04T10:19:37.153Z,8.48
2022-10-04T10:20:46.604Z,9.18
2022-10-04T10:22:00.622Z,9.27
2022-10-04T10:23:33.975Z,9.75
2022-10-04T10:24:45.655Z,9.98
2022-10-04T10:26:15.124Z,11.85
2022-10-04T10:27:52.343Z,8.85
2022-10-04T10:29:28.077Z,12.63
2022-10-04T10:30:37.902Z,12.02
2022-10-04T10:31:51.272Z,7.13
2022-10-04T10:33:11.985Z,10.27
2022-10-04T10:34:46.659Z,10.98
2022-10-04T10:36:33.211Z,14.77
2022-10-04T10:37:53.772Z,11.38
2022-10-04T10:39:13.842Z,10.15
2022-10-04T10:40:46.669Z,8.30
2022-10-04T10:42:13.576Z,11.82
2022-10-04T10:43:20.082Z,8.63
2022-10-04T10:44:50.005Z,10.10
2022-10-04T10:46:15.413Z,11.75
2022-10-04T10:47:36.497Z,11.77
2022-10-04T10:49:01.852Z,7.80
2022-10-04T10:50:25.929Z,14.05
2022-10-04T10:52:06.145Z,13.18
2022-10-04T10:54:00.861Z,11.65
2022-10-04T10:55:26.823Z,11.32
2022-10-04T10:57:05.130Z,12.27
2022-10-04T10:58:48.831Z,10.38
2022-10-04T11:00:01.345Z,11.35
2022-10-04T11:01:16.852Z,8.48
2022-10-04T11:02:50.009Z,8.55
2022-10-04T11:04:29.503Z,15.60
2022-10-04T11:06:09.795Z,8.20
2022-10-04T11:07:53.302Z,8.20
2022-10-04T11:09:17.028Z,15.00
2022-10-04T11:10:41.957Z,12.55
2022-10-04T11:12:18.460Z,9.95
2022-10-04T11:13:29.525Z,5.85
2022-10-04T11:15:06.084Z,6.80
2022-10-04T11:16:53.528Z,8.95
2022-10-04T11:18:04.746Z,6.35
2022-10-04T11:19:35.529Z,9.88
2022-10-04T11:20:47.284Z,7.90
2022-10-04T11:22:17.172Z,12.52
2022-10-04T11:23:37.526Z,7.00
2022-10-04T11:24:59.361Z,11.85
2022-10-04T11:26:39.826Z,9.82
2022-10-04T11:27:49.745Z,9.48
2022-10-04T11:28:58.970Z,7.35
2022-10-04T11:30:24.631Z,8.82
2022-10-04T11:31:55.805Z,8.77
2022-10-04T11:33:28.848Z,9.55
2022-10-04T11:35:11.910Z,12.80
2022-10-04T11:36:56.219Z,12.93
2022-10-04T11:38:09.034Z,5.15
2022-10-04T11:39:46.506Z,5.78
2022-10-04T11:41:38.172Z,8.55
2022-10-04T11:42:46.102Z,8.82
2022-10-04T11:43:50.048Z,9.80
2022-10-04T11:45:06.562Z,7.47
2022-10-04T11:46:24.597Z,11.35
2022-10-04T11:47:56.406Z,6.32
2022-10-04T11:49:37.140Z,7.95
2022-10-04T11:51:03.201Z,7.15
2022-10-04T11:52:17.586Z,6.90
2022-10-04T11:53:39.387Z,12.35
2022-10-04T11:55:12.380Z,7.25
2022-10-04T11:56:21.375Z,11.02
2022-10-04T11:57:47.627Z,8.57
2022-10-04T11:59:17.666Z,8.88
2022-10-04T12:00:25.322Z,6.70
2022-10-04T12:01:38.582Z,8.07
2022-10-04T12:03:09.213Z,7.05
2022-10-04T12:04:49.612Z,7.30
2022-10-04T12:06:09.978Z,9.80
2022-10-04T12:07:12.076Z,6.43
2022-10-04T12:08:37.849Z,9.27
2022-10-04T12:09:48.544Z,5.75
2022-10-04T12:11:21.523Z,8.27
2022-10-04T12:12:57.348Z,10.13
2022-10-04T12:14:24.683Z,5.55
2022-10-04T12:15:32.963Z,8.27
2022-10-04T12:17:25.159Z,10.10
2022-10-04T12:18:53.032Z,5.47
2022-10-04T12:20:28.672Z,8.25
2022-10-04T12:21:42.280Z,12.85
2022-10-04T12:23:07.258Z,11.48
2022-10-04T12:24:13.126Z,7.90
2022-10-04T12:25:47.823Z,9.52
2022-10-04T12:27:14.573Z,7.25
2022-10-04T12:28:34.548Z,11.82
2022-10-04T12:30:14.347Z,10.02
2022-10-04T12:31:22.994Z,7.93
2022-10-04T12:32:45.416Z,6.78
2022-10-04T12:34:14.550Z,8.18
2022-10-04T12:35:52.822Z,6.88
2022-10-04T12:37:13.548Z,10.27
2022-10-04T12:38:37.266Z,7.22
2022-10-04T12:39:50.536Z,8.18
2022-10-04T12:41:00.010Z,8.05
2022-10-04T12:42:20.658Z,6.95
2022-10-04T12:43:42.779Z,11.23
2022-10-04T12:44:58.297Z,6.80
2022-10-04T12:46:39.078Z,4.80
2022-10-04T12:48:05.765Z,7.70
2022-10-04T12:49:26.469Z,10.60
2022-10-04T12:51:02.652Z,10.82
2022-10-04T12:52:16.129Z,6.60
2022-10-04T12:53:46.964Z,7.35
2022-10-04T12:55:08.886Z,6.00
2022-10-04T12:56:28.392Z,6.47
2022-10-04T12:57:41.316Z,5.18
2022-10-04T12:58:46.046Z,6.50
2022-10-04T13:00:03.795Z,6.05
2022-10-04T13:01:24.096Z,6.65
2022-10-04T13:02:38.216Z,8.90
2022-10-04T13:04:17.390Z,7.70
2022-10-04T13:05:47.613Z,7.32
2022-10-04T13:07:15.334Z,8.10
2022-10-04T13:08:29.605Z,10.27
2022-10-04T13:10:23.135Z,4.68
2022-10-04T13:11:52.221Z,8.50
2022-10-04T13:13:32.472Z,6.55
2022-10-04T13:14:53.885Z,8.30
2022-10-04T13:18:07.601Z,7.28
2022-10-04T13:19:22.265Z,7.25
2022-10-04T13:20:37.670Z,8.15
2022-10-04T13:22:01.247Z,7.57
2022-10-04T13:23:26.803Z,5.03
2022-10-04T13:25:07.691Z,8.05
2022-10-04T13:26:42.105Z,6.60
2022-10-04T13:28:06.659Z,7.80
2022-10-04T13:29:14.864Z,9.93
2022-10-04T13:30:24.305Z,7.80
2022-10-04T13:31:41.352Z,5.35
2022-10-04T13:32:52.991Z,10.85
2022-10-04T13:34:07.083Z,8.17
2022-10-04T13:35:45.487Z,8.20
2022-10-04T13:37:07.916Z,9.23
2022-10-04T13:38:32.187Z,5.22
2022-10-04T13:39:40.284Z,5.63
2022-10-04T13:40:45.129Z,5.57
2022-10-04T13:42:10.139Z,6.35
2022-10-04T13:43:29.391Z,4.35
2022-10-04T13:45:18.306Z,6.80
2022-10-04T13:46:32.316Z,5.63
2022-10-04T13:48:03.614Z,5.88
2022-10-04T13:49:29.485Z,7.63
2022-10-04T13:50:49.476Z,7.00
2022-10-04T13:52:39.958Z,6.88
2022-10-04T13:54:15.847Z,8.70
2022-10-04T13:55:54.211Z,7.32
2022-10-04T13:57:18.121Z,7.35
2022-10-04T13:58:52.662Z,6.82
2022-10-04T14:00:15.860Z,7.93
2022-10-04T14:02:10.171Z,6.80
2022-10-04T14:03:30.875Z,5.45
2022-10-04T14:04:57.744Z,8.65
2022-10-04T14:06:21.922Z,5.75
2022-10-04T14:07:42.633Z,6.88
2022-10-04T14:09:13.611Z,6.25
2022-10-04T14:10:52.774Z,8.02
2022-10-04T14:12:06.734Z,11.02
2022-10-04T14:13:44.351Z,5.40
2022-10-04T14:15:29.391Z,5.10
2022-10-04T14:17:13.337Z,4.97
2022-10-04T14:20:09.809Z,6.90
2022-10-04T14:21:43.195Z,5.97
2022-10-04T14:23:07.274Z,9.52
2022-10-04T14:24:37.306Z,5.97
2022-10-04T14:25:58.595Z,6.78
2022-10-04T14:27:22.255Z,5.75
2022-10-04T14:28:43.589Z,5.30
2022-10-04T14:30:08.092Z,5.47
2022-10-04T14:31:48.377Z,6.35
2022-10-04T14:33:35.132Z,8.15
2022-10-04T14:34:58.078Z,10.07
2022-10-04T14:37:26.678Z,7.28
2022-10-04T14:38:38.605Z,6.07
2022-10-04T14:40:05.017Z,4.95
2022-10-04T14:41:39.003Z,6.75
2022-10-04T14:43:05.711Z,24.30
2022-10-04T14:44:25.768Z,12.10
2022-10-04T14:45:46.410Z,7.55
2022-10-04T14:47:13.739Z,5.72
2022-10-04T14:48:42.595Z,5.28
2022-10-04T14:49:47.886Z,6.75
2022-10-04T14:51:25.117Z,5.50
2022-10-04T14:53:14.843Z,6.13
2022-10-04T14:54:22.926Z,7.55
2022-10-04T14:55:50.899Z,7.00
2022-10-04T14:57:02.482Z,4.65
2022-10-04T14:58:13.671Z,4.27
2022-10-04T14:59:44.692Z,5.90
2022-10-04T15:01:00.144Z,10.50
2022-10-04T15:02:27.021Z,8.50
2022-10-04T15:03:46.649Z,5.88
2022-10-04T15:04:48.856Z,6.57
2022-10-04T15:05:54.762Z,3.90
2022-10-04T15:07:38.726Z,7.05
2022-10-04T15:08:51.257Z,3.75
2022-10-04T15:10:16.218Z,7.22
2022-10-04T15:11:43.393Z,9.15
2022-10-04T15:13:19.940Z,4.43
2022-10-04T15:14:38.806Z,5.75
2022-10-04T15:15:58.675Z,6.30
2022-10-04T15:17:05.420Z,5.68
2022-10-04T15:18:28.072Z,6.65
2022-10-04T15:19:49.596Z,5.57
2022-10-04T15:21:02.304Z,5.00
2022-10-04T15:22:19.499Z,5.25
2022-10-04T15:23:38.208Z,8.10
2022-10-04T15:24:51.335Z,7.45
2022-10-04T15:25:59.436Z,5.55
2022-10-04T15:27:35.349Z,11.40
2022-10-04T15:28:37.644Z,4.10
2022-10-04T15:30:06.054Z,5.93
2022-10-04T15:31:37.622Z,11.20
2022-10-04T15:32:52.247Z,5.47
2022-10-04T15:34:03.118Z,5.60
2022-10-04T15:35:30.737Z,6.68
2022-10-04T15:36:48.378Z,6.00
2022-10-04T15:38:15.833Z,5.15
2022-10-04T15:39:57.983Z,6.20
2022-10-04T15:41:33.104Z,5.47
2022-10-04T15:42:41.981Z,11.30
2022-10-04T15:43:47.269Z,5.35
2022-10-04T15:45:09.234Z,6.13
2022-10-04T15:46:34.289Z,8.43
2022-10-04T15:48:04.528Z,5.65
2022-10-04T15:49:37.221Z,5.95
2022-10-04T15:51:00.410Z,10.93
2022-10-04T15:52:19.756Z,10.25
2022-10-04T15:53:43.472Z,6.03
2022-10-04T15:55:19.474Z,6.50
2022-10-04T15:56:33.850Z,5.50
2022-10-04T15:58:02.894Z,6.55
2022-10-04T15:59:26.708Z,6.22
2022-10-04T16:01:02.300Z,9.05
2022-10-04T16:02:25.021Z,8.57
2022-10-04T16:03:31.293Z,5.93
2022-10-04T16:04:41.578Z,5.30
2022-10-04T16:06:20.750Z,4.57
2022-10-04T16:07:32.166Z,4.20
2022-10-04T16:09:09.849Z,8.90
2022-10-04T16:10:47.542Z,5.60
2022-10-04T16:12:01.803Z,8.20
2022-10-04T16:13:15.985Z,7.63
2022-10-04T16:14:20.732Z,7.53
2022-10-04T16:15:38.313Z,6.63
2022-10-04T16:16:56.695Z,6.75
2022-10-04T16:18:30.927Z,6.22
2022-10-04T16:19:40.964Z,5.03
2022-10-04T16:21:08.394Z,5.93
2022-10-04T16:22:28.001Z,7.20
2022-10-04T16:23:43.962Z,5.90
2022-10-04T16:25:24.300Z,10.20
2022-10-04T16:26:27.209Z,7.72
2022-10-04T16:27:56.877Z,6.63
2022-10-04T16:29:36.237Z,4.90
2022-10-04T16:30:48.319Z,6.40
2022-10-04T16:31:58.914Z,4.68
2022-10-04T16:33:32.059Z,9.48
2022-10-04T16:34:41.487Z,6.88
2022-10-04T16:35:49.671Z,5.60
2022-10-04T16:37:02.347Z,9.15
2022-10-04T16:38:21.462Z,10.63
2022-10-04T16:39:53.745Z,11.80
2022-10-04T16:41:11.704Z,8.38
2022-10-04T16:42:15.676Z,10.68
2022-10-04T16:43:17.896Z,10.60
2022-10-04T16:44:48.004Z,12.65
2022-10-04T16:46:15.293Z,9.98
2022-10-04T16:47:47.158Z,7.22
2022-10-04T16:48:56.106Z,10.13
2022-10-04T16:50:01.502Z,8.23
2022-10-04T16:51:12.393Z,6.15
2022-10-04T16:52:38.326Z,17.17
2022-10-04T16:54:08.381Z,7.55
2022-10-04T16:55:45.587Z,8.52
2022-10-04T16:56:57.281Z,6.63
2022-10-04T16:58:27.000Z,9.02
2022-10-04T16:59:57.125Z,11.27
2022-10-04T17:01:29.660Z,8.63
2022-10-04T17:02:52.201Z,10.73
2022-10-04T17:04:03.362Z,8.55
2022-10-04T17:05:18.202Z,10.35
2022-10-04T17:06:48.844Z,9.90
2022-10-04T17:07:54.027Z,11.82
2022-10-04T17:09:17.635Z,9.95
2022-10-04T17:10:48.899Z,13.45